createdAt,value
2022-10-15T00:01:50.949Z,77566.81
2022-10-15T00:04:18.041Z,77575.03
2022-10-15T00:06:45.113Z,77575.03
2022-10-15T00:09:12.165Z,77572.97
2022-10-15T00:11:40.413Z,77579.16
2022-10-15T00:14:07.693Z,77581.19
2022-10-15T00:16:35.346Z,77589.41
2022-10-15T00:19:04.655Z,77605.88
2022-10-15T00:21:32.231Z,77603.81
2022-10-15T00:23:59.310Z,77607.94
2022-10-15T00:26:26.782Z,77605.88
2022-10-15T00:31:45.451Z,77620.28
2022-10-15T00:34:12.798Z,77628.50
2022-10-15T00:36:39.885Z,77624.38
2022-10-15T00:39:07.076Z,77632.59
2022-10-15T00:41:35.340Z,77630.56
2022-10-15T00:44:22.460Z,77638.78
2022-10-15T00:46:50.172Z,77644.94
2022-10-15T00:49:23.767Z,77651.13
2022-10-15T00:51:56.123Z,77661.41
2022-10-15T00:54:23.399Z,77663.44
2022-10-15T00:56:50.541Z,77667.56
2022-10-15T00:59:18.407Z,77667.56
2022-10-15T01:01:45.536Z,77665.50
2022-10-15T01:04:12.854Z,77661.41
2022-10-15T01:06:39.921Z,77669.63
2022-10-15T01:09:06.973Z,77667.56
2022-10-15T01:11:37.065Z,77679.91
2022-10-15T01:14:07.182Z,77665.50
2022-10-15T01:16:49.414Z,77690.19
2022-10-15T01:19:28.576Z,77694.28
2022-10-15T01:21:56.708Z,77694.28
2022-10-15T01:24:24.004Z,77698.41
2022-10-15T01:27:06.016Z,77698.41
2022-10-15T01:29:51.610Z,77706.63
2022-10-15T01:32:21.945Z,77710.75
2022-10-15T01:34:49.527Z,77723.09
2022-10-15T01:37:28.925Z,77729.25
2022-10-15T01:40:19.097Z,77731.31
2022-10-15T01:42:58.895Z,77737.47
2022-10-15T01:45:28.392Z,77735.41
2022-10-15T01:47:56.681Z,77739.53
2022-10-15T01:50:24.586Z,77749.81
2022-10-15T01:52:51.928Z,77747.75
2022-10-15T01:55:19.463Z,77735.41
2022-10-15T01:57:46.477Z,77735.41
2022-10-15T02:00:13.707Z,77751.88
2022-10-15T02:02:41.286Z,77753.94
2022-10-15T02:05:10.295Z,77751.88
2022-10-15T02:07:55.302Z,77758.03
2022-10-15T02:10:24.929Z,77772.44
2022-10-15T02:12:56.527Z,77764.22
2022-10-15T02:15:27.725Z,77780.66
2022-10-15T02:18:16.493Z,77784.78
2022-10-15T02:21:00.035Z,77772.44
2022-10-15T02:23:38.242Z,77784.78
2022-10-15T02:26:06.590Z,77776.53
2022-10-15T02:28:34.262Z,77780.66
2022-10-15T02:31:01.517Z,77788.88
2022-10-15T02:33:28.768Z,77784.78
2022-10-15T02:35:56.188Z,77780.66
2022-10-15T02:38:23.504Z,77790.94
2022-10-15T02:40:50.846Z,77807.41
2022-10-15T02:43:18.880Z,77799.16
2022-10-15T02:45:46.165Z,77805.34
2022-10-15T02:48:13.266Z,77805.34
2022-10-15T02:50:40.298Z,77801.22
2022-10-15T02:53:08.014Z,77815.63
2022-10-15T02:55:35.111Z,77815.63
2022-10-15T02:58:02.342Z,77813.56
2022-10-15T03:00:29.630Z,77819.72
2022-10-15T03:02:56.716Z,77821.78
2022-10-15T03:05:23.945Z,77821.78
2022-10-15T03:07:51.603Z,77825.91
2022-10-15T03:10:23.172Z,77836.19
2022-10-15T03:12:50.205Z,77854.69
2022-10-15T03:15:17.347Z,77848.53
2022-10-15T03:17:44.397Z,77860.88
2022-10-15T03:20:13.834Z,77854.69
2022-10-15T03:22:41.412Z,77858.81
2022-10-15T03:25:08.584Z,77852.63
2022-10-15T03:27:37.308Z,77862.91
2022-10-15T03:30:04.705Z,77856.75
2022-10-15T03:32:33.121Z,77867.03
2022-10-15T03:35:03.333Z,77871.16
2022-10-15T03:37:30.530Z,77862.91
2022-10-15T03:39:57.558Z,77862.91
2022-10-15T03:42:25.651Z,77869.09
2022-10-15T03:44:53.088Z,77867.03
2022-10-15T03:47:20.096Z,77873.19
2022-10-15T03:49:47.109Z,77875.25
2022-10-15T03:52:14.155Z,77883.47
2022-10-15T03:54:41.202Z,77889.66
2022-10-15T03:57:08.252Z,77881.44
2022-10-15T03:59:35.319Z,77881.44
2022-10-15T04:02:02.396Z,77879.38
2022-10-15T04:04:29.662Z,77875.25
2022-10-15T04:06:56.755Z,77897.88
2022-10-15T04:09:23.829Z,77889.66
2022-10-15T04:11:52.629Z,77881.44
2022-10-15T04:14:23.532Z,77887.59
2022-10-15T04:16:50.733Z,77887.59
2022-10-15T04:19:18.065Z,77883.47
2022-10-15T04:21:45.915Z,77887.59
2022-10-15T04:24:13.305Z,77887.59
2022-10-15T04:26:41.554Z,77883.47
2022-10-15T04:29:10.700Z,77873.19
2022-10-15T04:31:39.240Z,77871.16
2022-10-15T04:34:06.360Z,77875.25
2022-10-15T04:36:33.737Z,77869.09
2022-10-15T04:39:01.240Z,77867.03
2022-10-15T04:41:28.349Z,77858.81
2022-10-15T04:43:55.748Z,77862.91
2022-10-15T04:46:22.909Z,77858.81
2022-10-15T04:48:50.074Z,77854.69
2022-10-15T04:51:17.776Z,77844.41
2022-10-15T04:53:44.970Z,77846.47
2022-10-15T04:56:17.812Z,77850.59
2022-10-15T04:58:45.781Z,77838.25
2022-10-15T05:01:14.065Z,77834.13
2022-10-15T05:03:45.036Z,77830.00
2022-10-15T05:06:21.791Z,77832.06
2022-10-15T05:08:51.193Z,77825.91
2022-10-15T05:11:19.390Z,77817.69
2022-10-15T05:13:46.482Z,77813.56
2022-10-15T05:16:13.505Z,77813.56
2022-10-15T05:18:40.735Z,77799.16
2022-10-15T05:21:08.465Z,77797.13
2022-10-15T05:23:36.788Z,77788.88
2022-10-15T05:26:05.553Z,77797.13
2022-10-15T05:28:32.631Z,77780.66
2022-10-15T05:31:06.606Z,77788.88
2022-10-15T05:33:34.334Z,77780.66
2022-10-15T05:36:08.366Z,77776.53
2022-10-15T05:38:35.377Z,77780.66
2022-10-15T05:41:02.412Z,77768.31
2022-10-15T05:43:29.553Z,77735.41
2022-10-15T05:45:56.716Z,77727.19
2022-10-15T05:48:24.229Z,77710.75
2022-10-15T05:50:51.513Z,77696.34
2022-10-15T05:53:18.865Z,77665.50
2022-10-15T05:55:46.106Z,77657.28
2022-10-15T05:58:13.151Z,77644.94
2022-10-15T06:00:40.583Z,77620.28
2022-10-15T06:03:10.854Z,77616.16
2022-10-15T06:05:38.000Z,77579.16
2022-10-15T06:08:05.452Z,77560.63
2022-10-15T06:10:35.279Z,77529.78
2022-10-15T06:13:02.767Z,77513.34
2022-10-15T06:15:29.837Z,77476.31
2022-10-15T06:17:56.864Z,77478.38
2022-10-15T06:20:25.820Z,77447.53
2022-10-15T06:22:56.418Z,77439.31
2022-10-15T06:25:23.563Z,77426.97
2022-10-15T06:27:50.936Z,77404.38
2022-10-15T06:30:18.053Z,77369.41
2022-10-15T06:32:52.402Z,77352.97
2022-10-15T06:35:19.796Z,77332.41
2022-10-15T06:37:46.922Z,77293.34
2022-10-15T06:40:14.063Z,77270.72
2022-10-15T06:42:41.150Z,77258.38
2022-10-15T06:45:10.179Z,77237.81
2022-10-15T06:47:41.974Z,77225.47
2022-10-15T06:50:09.373Z,77213.16
2022-10-15T06:52:36.398Z,77163.81
2022-10-15T06:55:03.940Z,76964.38
2022-10-15T06:57:31.309Z,76645.72
2022-10-15T06:59:58.454Z,76205.81
2022-10-15T07:02:25.830Z,76020.84
2022-10-15T07:04:53.321Z,75994.13
2022-10-15T07:07:22.116Z,75963.28
2022-10-15T07:09:53.466Z,75844.09
2022-10-15T07:12:22.478Z,75934.53
2022-10-15T07:14:49.945Z,75848.19
2022-10-15T07:17:17.807Z,75759.81
2022-10-15T07:19:44.967Z,75788.59
2022-10-15T07:22:12.109Z,75597.47
2022-10-15T07:24:39.337Z,75585.13
2022-10-15T07:27:18.214Z,75683.78
2022-10-15T07:29:46.000Z,75714.59
2022-10-15T07:32:13.349Z,75683.78
2022-10-15T07:34:41.890Z,75852.31
2022-10-15T07:37:09.118Z,76057.84
2022-10-15T07:39:39.121Z,76152.38
2022-10-15T07:42:08.905Z,76234.59
2022-10-15T07:44:35.964Z,75971.50
2022-10-15T07:47:03.044Z,75846.13
2022-10-15T07:49:30.275Z,75630.34
2022-10-15T07:51:57.323Z,75650.91
2022-10-15T07:54:24.373Z,75544.03
2022-10-15T07:56:51.414Z,75404.28
2022-10-15T07:59:18.550Z,75431.00
2022-10-15T08:01:48.450Z,75490.59
2022-10-15T08:04:17.990Z,75408.41
2022-10-15T08:06:45.238Z,75305.66
2022-10-15T08:09:12.391Z,75367.31
2022-10-15T08:11:39.522Z,75359.09
2022-10-15T08:14:06.884Z,75620.06
2022-10-15T08:16:35.417Z,75679.69
2022-10-15T08:19:03.716Z,75630.34
2022-10-15T08:21:30.986Z,75607.75
2022-10-15T08:23:58.290Z,75468.00
2022-10-15T08:26:26.650Z,75305.66
2022-10-15T08:28:54.608Z,75354.97
2022-10-15T08:31:21.819Z,75515.25
2022-10-15T08:33:48.852Z,75256.34
2022-10-15T08:36:17.975Z,75420.72
2022-10-15T08:38:45.350Z,75379.63
2022-10-15T08:41:32.857Z,75309.78
2022-10-15T08:44:00.182Z,75391.97
2022-10-15T08:46:33.920Z,75363.19
2022-10-15T08:49:01.580Z,75207.03
2022-10-15T08:51:30.724Z,75258.41
2022-10-15T08:53:58.398Z,75338.53
2022-10-15T08:56:33.844Z,75202.91
2022-10-15T08:59:02.770Z,75350.88
2022-10-15T09:01:29.837Z,75190.59
2022-10-15T09:04:01.497Z,75336.47
2022-10-15T09:06:35.540Z,75176.19
2022-10-15T09:09:23.773Z,75124.84
2022-10-15T09:11:59.442Z,75268.66
2022-10-15T09:14:28.173Z,75190.59
2022-10-15T09:16:55.276Z,75108.41
2022-10-15T09:19:24.623Z,75124.84
2022-10-15T09:21:52.011Z,75256.34
2022-10-15T09:24:22.929Z,75204.97
2022-10-15T09:26:51.798Z,75067.28
2022-10-15T09:29:19.289Z,74964.56
2022-10-15T09:31:48.215Z,75108.41
2022-10-15T09:34:19.957Z,75182.38
2022-10-15T09:36:52.438Z,75233.75
2022-10-15T09:39:25.591Z,75330.31
2022-10-15T09:41:53.764Z,75196.75
2022-10-15T09:44:21.261Z,75227.56
2022-10-15T09:46:51.062Z,75328.25
2022-10-15T09:49:19.614Z,75342.66
2022-10-15T09:52:06.326Z,75116.63
2022-10-15T09:54:36.550Z,74981.00
2022-10-15T09:57:03.667Z,74882.38
2022-10-15T10:02:15.511Z,75059.06
2022-10-15T10:04:43.199Z,75141.28
2022-10-15T10:07:23.953Z,74956.34
2022-10-15T10:09:55.174Z,75145.38
2022-10-15T10:12:43.115Z,75083.75
2022-10-15T10:15:26.430Z,75244.00
2022-10-15T10:17:56.977Z,75172.09
2022-10-15T10:20:25.201Z,75256.34
2022-10-15T10:22:53.213Z,75194.69
2022-10-15T10:25:27.273Z,75274.84
2022-10-15T10:27:58.273Z,75283.06
2022-10-15T10:30:25.377Z,75157.72
2022-10-15T10:32:55.574Z,75207.03
2022-10-15T10:35:23.246Z,75120.72
2022-10-15T10:37:50.304Z,75270.72
2022-10-15T10:40:22.458Z,75276.91
2022-10-15T10:42:49.590Z,75250.19
2022-10-15T10:45:21.271Z,75268.66
2022-10-15T10:47:48.361Z,75239.91
2022-10-15T10:50:31.980Z,75225.53
2022-10-15T10:53:01.873Z,75153.59
2022-10-15T10:55:34.201Z,75276.91
2022-10-15T10:58:01.357Z,75414.56
2022-10-15T11:00:40.837Z,75441.28
2022-10-15T11:03:29.235Z,75556.38
2022-10-15T11:06:12.798Z,75572.81
2022-10-15T11:08:41.088Z,75416.63
2022-10-15T11:11:22.131Z,75474.16
2022-10-15T11:14:01.417Z,75478.28
2022-10-15T11:16:49.696Z,75523.50
2022-10-15T11:19:54.616Z,75716.66
2022-10-15T11:22:16.111Z,75708.44
2022-10-15T11:25:06.942Z,75731.06
2022-10-15T11:27:50.968Z,75659.13
2022-10-15T11:30:50.608Z,75716.66
2022-10-15T11:33:24.796Z,75778.31
2022-10-15T11:35:59.614Z,75741.31
2022-10-15T11:38:29.685Z,75798.88
2022-10-15T11:40:56.896Z,75761.88
2022-10-15T11:44:02.565Z,75839.97
2022-10-15T11:46:35.723Z,75802.97
2022-10-15T11:49:02.811Z,75741.31
2022-10-15T11:51:49.183Z,75811.22
2022-10-15T11:54:23.511Z,75844.09
2022-10-15T11:56:50.662Z,75879.03
2022-10-15T11:59:17.749Z,75852.31
2022-10-15T12:01:48.717Z,75831.75
2022-10-15T12:04:18.389Z,75839.97
2022-10-15T12:06:48.650Z,75835.88
2022-10-15T12:09:16.575Z,75901.63
2022-10-15T12:12:04.289Z,75967.41
2022-10-15T12:14:44.293Z,75979.75
2022-10-15T12:17:30.165Z,75913.97
2022-10-15T12:19:59.240Z,75823.53
2022-10-15T12:22:34.337Z,75807.09
2022-10-15T12:25:03.403Z,75823.53
2022-10-15T12:27:34.690Z,75811.22
2022-10-15T12:30:07.895Z,75772.16
2022-10-15T12:32:42.215Z,75751.59
2022-10-15T12:35:15.383Z,75659.13
2022-10-15T12:37:46.487Z,75638.56
2022-10-15T12:40:22.792Z,75525.53
2022-10-15T12:42:50.147Z,75445.41
2022-10-15T12:45:20.710Z,75445.41
2022-10-15T12:47:54.065Z,75507.03
2022-10-15T12:50:26.063Z,75671.44
2022-10-15T12:52:59.501Z,75778.31
2022-10-15T12:55:28.842Z,75802.97
2022-10-15T12:58:00.473Z,75848.19
2022-10-15T13:00:37.463Z,75792.72
2022-10-15T13:03:15.302Z,75726.94
2022-10-15T13:05:43.334Z,75724.88
2022-10-15T13:08:23.159Z,75757.78
2022-10-15T13:10:53.271Z,75776.25
2022-10-15T13:13:24.256Z,75926.28
2022-10-15T13:15:54.579Z,75891.34
2022-10-15T13:18:24.137Z,75852.31
2022-10-15T13:20:54.330Z,75901.63
2022-10-15T13:23:31.019Z,75924.25
2022-10-15T13:26:17.355Z,75938.63
2022-10-15T13:28:46.295Z,75860.53
2022-10-15T13:31:13.349Z,75807.09
2022-10-15T13:33:41.321Z,75881.09
2022-10-15T13:36:08.570Z,75856.41
2022-10-15T13:38:35.836Z,75860.53
2022-10-15T13:41:02.891Z,75924.25
2022-10-15T13:43:30.090Z,75922.19
2022-10-15T13:45:57.704Z,75918.06
2022-10-15T13:48:25.796Z,75909.84
2022-10-15T13:51:02.398Z,75897.53
2022-10-15T13:53:30.227Z,76039.34
2022-10-15T13:55:58.214Z,76156.50
2022-10-15T13:58:29.322Z,76205.81
2022-10-15T14:00:56.539Z,76242.81
2022-10-15T14:03:27.478Z,76281.88
2022-10-15T14:05:55.230Z,76288.03
2022-10-15T14:08:23.448Z,76267.50
2022-10-15T14:10:53.178Z,76226.38
2022-10-15T14:13:21.394Z,76259.28
2022-10-15T14:15:53.827Z,76357.94
2022-10-15T14:18:33.211Z,76403.16
2022-10-15T14:21:00.309Z,76489.50
2022-10-15T14:23:28.226Z,76534.72
2022-10-15T14:26:02.108Z,76555.28
2022-10-15T14:28:30.213Z,76557.31
2022-10-15T14:30:57.306Z,76608.72
2022-10-15T14:33:31.405Z,76625.16
2022-10-15T14:36:24.002Z,76653.94
2022-10-15T14:38:52.302Z,76703.28
2022-10-15T14:41:26.962Z,76719.72
2022-10-15T14:44:12.370Z,76727.94
2022-10-15T14:46:40.421Z,76732.06
2022-10-15T14:49:26.364Z,76752.63
2022-10-15T14:51:54.118Z,76773.19
2022-10-15T14:54:22.156Z,76810.19
2022-10-15T14:56:50.721Z,76826.63
2022-10-15T14:59:18.076Z,76855.41
2022-10-15T15:01:52.178Z,76847.19
2022-10-15T15:04:48.675Z,76843.06
2022-10-15T15:07:16.927Z,76855.41
2022-10-15T15:09:50.550Z,76871.84
2022-10-15T15:12:21.726Z,76910.91
2022-10-15T15:14:51.562Z,76919.16
2022-10-15T15:17:20.092Z,76933.53
2022-10-15T15:19:47.402Z,76958.19
2022-10-15T15:22:15.740Z,76952.03
2022-10-15T15:24:42.803Z,76962.31
2022-10-15T15:27:21.649Z,76976.72
2022-10-15T15:29:51.745Z,76978.75
2022-10-15T15:32:21.314Z,76968.47
2022-10-15T15:34:48.537Z,76974.66
2022-10-15T15:37:16.666Z,77007.53
2022-10-15T15:39:44.755Z,77040.44
2022-10-15T15:42:15.510Z,77036.34
2022-10-15T15:44:42.968Z,77019.88
2022-10-15T15:47:12.271Z,77048.66
2022-10-15T15:49:39.834Z,77044.56
2022-10-15T15:52:08.952Z,77048.66
2022-10-15T15:54:36.330Z,77061.00
2022-10-15T15:57:03.369Z,77087.72
2022-10-15T15:59:31.153Z,77106.22
2022-10-15T16:01:58.320Z,77104.19
2022-10-15T16:04:26.123Z,77089.78
2022-10-15T16:06:53.147Z,77098.00
2022-10-15T16:09:22.578Z,77120.63
2022-10-15T16:11:50.253Z,77153.53
2022-10-15T16:14:17.887Z,77147.34
2022-10-15T16:16:45.031Z,77147.34
2022-10-15T16:19:12.453Z,77174.09
2022-10-15T16:21:40.379Z,77161.75
2022-10-15T16:24:08.276Z,77169.97
2022-10-15T16:26:36.780Z,77157.63
2022-10-15T16:29:05.493Z,77167.91
2022-10-15T16:31:36.613Z,77155.56
2022-10-15T16:34:04.316Z,77172.03
2022-10-15T16:36:31.692Z,77159.69
2022-10-15T16:38:58.818Z,77163.81
2022-10-15T16:41:26.288Z,77167.91
2022-10-15T16:43:54.581Z,77172.03
2022-10-15T16:46:21.806Z,77167.91
2022-10-15T16:48:55.266Z,77176.13
2022-10-15T16:51:22.483Z,77167.91
2022-10-15T16:53:49.664Z,77176.13
2022-10-15T16:56:17.070Z,77165.84
2022-10-15T16:58:44.540Z,77182.31
2022-10-15T17:01:12.424Z,77192.59
2022-10-15T17:03:42.731Z,77190.53
2022-10-15T17:06:11.240Z,77176.13
2022-10-15T17:08:39.780Z,77196.69
2022-10-15T17:11:14.337Z,77184.34
2022-10-15T17:13:44.700Z,77192.59
2022-10-15T17:16:15.806Z,77209.03
2022-10-15T17:18:46.376Z,77221.38
2022-10-15T17:21:15.467Z,77215.19
2022-10-15T17:23:43.771Z,77215.19
2022-10-15T17:26:11.822Z,77209.03
2022-10-15T17:28:40.417Z,77225.47
2022-10-15T17:31:08.471Z,77219.31
2022-10-15T17:33:35.974Z,77217.25
2022-10-15T17:36:06.769Z,77246.03
2022-10-15T17:38:34.025Z,77241.94
2022-10-15T17:41:15.362Z,77256.31
2022-10-15T17:43:42.907Z,77258.38
2022-10-15T17:46:14.286Z,77270.72
2022-10-15T17:48:41.807Z,77291.28
2022-10-15T17:51:14.386Z,77311.84
2022-10-15T17:53:41.858Z,77336.50
2022-10-15T17:56:12.927Z,77320.06
2022-10-15T17:58:40.041Z,77336.50
2022-10-15T18:01:07.079Z,77352.97
2022-10-15T18:03:36.048Z,77363.25
2022-10-15T18:06:06.994Z,77369.41
2022-10-15T18:08:34.079Z,77361.19
2022-10-15T18:11:02.053Z,77375.56
2022-10-15T18:13:29.163Z,77389.97
2022-10-15T18:15:58.868Z,77414.66
2022-10-15T18:18:27.168Z,77418.75
2022-10-15T18:20:54.337Z,77445.50
2022-10-15T18:23:21.557Z,77451.66
2022-10-15T18:25:48.701Z,77453.72
2022-10-15T18:28:15.845Z,77443.44
2022-10-15T18:30:42.884Z,77429.03
2022-10-15T18:33:10.670Z,77424.94
2022-10-15T18:35:38.463Z,77435.22
2022-10-15T18:38:06.092Z,77455.75
2022-10-15T18:40:40.965Z,77447.53
2022-10-15T18:43:08.327Z,77435.22
2022-10-15T18:45:35.880Z,77453.72
2022-10-15T18:48:03.100Z,77447.53
2022-10-15T18:50:31.247Z,77447.53
2022-10-15T18:52:58.284Z,77484.56
2022-10-15T18:55:25.696Z,77472.22
2022-10-15T18:57:54.046Z,77478.38
2022-10-15T19:00:21.136Z,77476.31
2022-10-15T19:02:48.176Z,77476.31
2022-10-15T19:05:15.757Z,77470.16
2022-10-15T19:07:44.188Z,77474.28
2022-10-15T19:10:12.444Z,77464.00
2022-10-15T19:12:41.191Z,77464.00
2022-10-15T19:15:09.127Z,77496.91
2022-10-15T19:17:36.388Z,77505.13
2022-10-15T19:20:03.957Z,77501.00
2022-10-15T19:22:32.780Z,77509.22
2022-10-15T19:24:59.887Z,77509.22
2022-10-15T19:27:27.463Z,77509.22
2022-10-15T19:29:55.016Z,77525.69
2022-10-15T19:32:22.714Z,77519.50
2022-10-15T19:34:49.943Z,77501.00
2022-10-15T19:37:17.180Z,77533.91
2022-10-15T19:39:48.272Z,77531.84
2022-10-15T19:42:15.639Z,77521.56
2022-10-15T19:44:44.213Z,77521.56
2022-10-15T19:47:11.290Z,77550.34
2022-10-15T19:49:38.308Z,77546.25
2022-10-15T19:52:05.798Z,77550.34
2022-10-15T19:54:33.127Z,77550.34
2022-10-15T19:57:10.286Z,77542.13
2022-10-15T19:59:37.415Z,77554.47
2022-10-15T20:02:04.461Z,77554.47
2022-10-15T20:04:31.595Z,77550.34
2022-10-15T20:06:58.976Z,77542.13
2022-10-15T20:09:26.035Z,77554.47
2022-10-15T20:11:53.106Z,77570.91
2022-10-15T20:14:22.468Z,77591.47
2022-10-15T20:16:50.162Z,77587.38
2022-10-15T20:19:17.252Z,77572.97
2022-10-15T20:21:46.102Z,77583.25
2022-10-15T20:24:13.395Z,77587.38
2022-10-15T20:26:40.439Z,77583.25
2022-10-15T20:29:07.765Z,77583.25
2022-10-15T20:31:35.976Z,77587.38
2022-10-15T20:34:03.076Z,77595.59
2022-10-15T20:36:30.576Z,77624.38
2022-10-15T20:38:58.700Z,77616.16
2022-10-15T20:41:25.757Z,77624.38
2022-10-15T20:43:54.442Z,77624.38
2022-10-15T20:46:23.338Z,77640.81
2022-10-15T20:48:50.380Z,77630.56
2022-10-15T20:51:17.702Z,77644.94
2022-10-15T20:53:44.924Z,77632.59
2022-10-15T20:56:12.345Z,77649.06
2022-10-15T20:58:39.481Z,77657.28
2022-10-15T21:01:08.061Z,77653.16
2022-10-15T21:03:35.224Z,77651.13
2022-10-15T21:06:02.433Z,77653.16
2022-10-15T21:08:31.512Z,77649.06
2022-10-15T21:11:05.802Z,77657.28
2022-10-15T21:13:33.289Z,77681.97
2022-10-15T21:16:00.902Z,77692.25
2022-10-15T21:18:28.668Z,77710.75
2022-10-15T21:21:00.222Z,77706.63
2022-10-15T21:23:28.805Z,77698.41
2022-10-15T21:25:57.031Z,77698.41
2022-10-15T21:28:24.126Z,77710.75
2022-10-15T21:30:52.834Z,77706.63
2022-10-15T21:33:20.207Z,77710.75
2022-10-15T21:35:47.265Z,77706.63
2022-10-15T21:38:14.380Z,77725.13
2022-10-15T21:40:41.422Z,77725.13
2022-10-15T21:43:08.811Z,77747.75
2022-10-15T21:45:35.837Z,77764.22
2022-10-15T21:48:02.978Z,77751.88
2022-10-15T21:50:30.156Z,77751.88
2022-10-15T21:52:57.383Z,77755.97
2022-10-15T21:55:28.346Z,77772.44
2022-10-15T21:57:57.723Z,77780.66
2022-10-15T22:00:24.749Z,77786.84
2022-10-15T22:02:52.109Z,77793.00
2022-10-15T22:05:19.241Z,77805.34
2022-10-15T22:07:47.062Z,77809.44
2022-10-15T22:10:17.054Z,77813.56
2022-10-15T22:12:44.361Z,77813.56
2022-10-15T22:15:11.448Z,77809.44
2022-10-15T22:17:38.475Z,77813.56
2022-10-15T22:20:06.264Z,77830.00
2022-10-15T22:22:33.314Z,77825.91
2022-10-15T22:25:00.882Z,77825.91
2022-10-15T22:27:28.067Z,77821.78
2022-10-15T22:29:55.238Z,77834.13
2022-10-15T22:32:22.402Z,77830.00
2022-10-15T22:34:49.538Z,77854.69
2022-10-15T22:37:16.738Z,77838.25
2022-10-15T22:39:43.768Z,77825.91
2022-10-15T22:42:11.483Z,77821.78
2022-10-15T22:44:38.525Z,77821.78
2022-10-15T22:47:05.556Z,77830.00
2022-10-15T22:49:32.597Z,77821.78
2022-10-15T22:51:59.669Z,77821.78
2022-10-15T22:54:27.357Z,77825.91
2022-10-15T22:56:54.447Z,77838.25
2022-10-15T22:59:23.553Z,77834.13
2022-10-15T23:01:50.661Z,77844.41
2022-10-15T23:04:17.713Z,77858.81
2022-10-15T23:06:45.615Z,77862.91
2022-10-15T23:09:18.027Z,77869.09
2022-10-15T23:11:46.619Z,77875.25
2022-10-15T23:14:14.464Z,77883.47
2022-10-15T23:16:42.254Z,77887.59
2022-10-15T23:19:20.316Z,77891.72
2022-10-15T23:21:56.848Z,77895.81
2022-10-15T23:24:24.694Z,77899.94
2022-10-15T23:26:51.847Z,77895.81
2022-10-15T23:29:25.359Z,77902.00
2022-10-15T23:31:52.625Z,77908.16
2022-10-15T23:34:20.954Z,77916.38
2022-10-15T23:36:48.274Z,77932.84
2022-10-15T23:39:16.283Z,77932.84
2022-10-15T23:41:43.559Z,77928.72
2022-10-15T23:44:10.903Z,77932.84
2022-10-15T23:46:38.467Z,77945.19
2022-10-15T23:49:05.918Z,77947.22
2022-10-15T23:51:34.786Z,77949.28
2022-10-15T23:54:02.166Z,77953.41
2022-10-15T23:56:30.397Z,77949.28
2022-10-15T23:58:58.507Z,77953.41
